Time;durP1;ratioP1;P1;durP2;ratioP2;P2;SDS_P1;SDS_P2;PMS_P1;PMS_P2;Temp;Humidity;BMP_temperature;BMP_pressure;BME280_temperature;BME280_humidity;BME280_pressure;Samples;Min_cycle;Max_cycle;Signal;HPM_P1;HPM_P2
2021/10/19 00:00:12;;;;;;;14.93;7.95;;;11.70;83.40;;;;;;5010029;28;20029;-73
2021/10/19 00:02:43;;;;;;;13.57;9.13;;;11.80;83.40;;;;;;5012971;28;20034;-73
2021/10/19 00:05:10;;;;;;;12.57;8.27;;;11.80;82.90;;;;;;5011324;28;20637;-73
2021/10/19 00:07:37;;;;;;;12.13;8.13;;;11.80;83.10;;;;;;5011207;28;20040;-73
2021/10/19 00:10:04;;;;;;;12.15;7.85;;;11.80;83.60;;;;;;5010301;28;20038;-73
2021/10/19 00:12:30;;;;;;;14.40;8.43;;;11.80;83.90;;;;;;5011708;28;20045;-73
2021/10/19 00:14:55;;;;;;;13.50;8.80;;;11.80;84.00;;;;;;5009152;28;20034;-73
2021/10/19 00:17:21;;;;;;;13.45;8.13;;;11.80;83.70;;;;;;5011080;28;20033;-73
2021/10/19 00:19:47;;;;;;;12.48;7.75;;;11.80;83.50;;;;;;5010848;28;20033;-73
2021/10/19 00:22:12;;;;;;;12.85;7.68;;;11.80;83.50;;;;;;5011289;28;20052;-73
2021/10/19 00:24:38;;;;;;;12.60;7.82;;;11.80;83.70;;;;;;5010438;28;20056;-73
2021/10/19 00:27:07;;;;;;;12.95;7.88;;;11.80;84.00;;;;;;5008556;28;20765;-74
2021/10/19 00:29:33;;;;;;;12.95;8.15;;;11.80;83.50;;;;;;5013034;28;20034;-74
2021/10/19 00:31:59;;;;;;;15.45;8.85;;;11.80;83.60;;;;;;5012757;28;20060;-73
2021/10/19 00:34:24;;;;;;;12.70;8.05;;;11.70;83.70;;;;;;5014748;28;20041;-73
2021/10/19 00:36:50;;;;;;;11.95;7.50;;;11.70;83.80;;;;;;5006133;28;20042;-74
2021/10/19 00:39:16;;;;;;;13.40;7.45;;;11.70;83.90;;;;;;5008062;28;20041;-74
2021/10/19 00:41:43;;;;;;;15.05;9.07;;;11.70;84.20;;;;;;5009828;28;20022;-74
2021/10/19 00:44:08;;;;;;;12.73;8.45;;;11.70;84.00;;;;;;5011761;28;20053;-73
2021/10/19 00:46:34;;;;;;;11.90;8.02;;;11.70;84.00;;;;;;5007687;28;20045;-74
2021/10/19 00:49:00;;;;;;;12.50;8.55;;;11.60;84.00;;;;;;5012396;28;20025;-73
2021/10/19 00:51:26;;;;;;;14.00;8.45;;;11.60;84.40;;;;;;5011076;28;20061;-73
2021/10/19 00:53:52;;;;;;;13.80;8.57;;;11.50;84.30;;;;;;5011982;28;20405;-74
2021/10/19 00:56:18;;;;;;;13.80;7.97;;;11.50;84.60;;;;;;5007074;28;20038;-74
2021/10/19 00:58:44;;;;;;;14.00;8.18;;;11.50;84.60;;;;;;5007986;28;20041;-74
2021/10/19 01:01:10;;;;;;;14.77;8.63;;;11.40;84.90;;;;;;5011142;28;20398;-74
2021/10/19 01:03:36;;;;;;;14.02;9.07;;;11.40;85.20;;;;;;5007567;28;20027;-74
2021/10/19 01:06:04;;;;;;;13.88;8.82;;;11.40;85.50;;;;;;5013115;28;20076;-74
2021/10/19 01:08:31;;;;;;;14.90;8.65;;;11.30;85.60;;;;;;5009830;28;20026;-73
2021/10/19 01:10:57;;;;;;;13.52;8.75;;;11.30;85.80;;;;;;5009880;28;20112;-74
2021/10/19 01:13:23;;;;;;;14.02;9.30;;;11.30;86.10;;;;;;5008355;28;20030;-74
2021/10/19 01:15:49;;;;;;;12.40;8.48;;;11.20;86.40;;;;;;5009697;28;20643;-73
2021/10/19 01:18:17;;;;;;;12.73;7.72;;;11.20;86.10;;;;;;5013994;28;20092;-74
2021/10/19 01:20:43;;;;;;;13.63;8.38;;;11.20;86.00;;;;;;5011020;28;20898;-74
2021/10/19 01:23:10;;;;;;;13.90;8.73;;;11.10;85.90;;;;;;5008467;28;20022;-74
2021/10/19 01:25:37;;;;;;;16.15;9.45;;;11.10;86.30;;;;;;5007264;28;20065;-74
2021/10/19 01:28:07;;;;;;;13.98;9.07;;;11.10;86.70;;;;;;5010054;28;20044;-74
2021/10/19 01:30:39;;;;;;;14.32;8.70;;;11.10;86.80;;;;;;5011460;28;20084;-73
2021/10/19 01:33:05;;;;;;;14.20;8.82;;;11.10;87.00;;;;;;5010727;28;20035;-74
2021/10/19 01:35:35;;;;;;;14.27;9.90;;;11.00;87.50;;;;;;5011248;28;20406;-74
2021/10/19 01:38:02;;;;;;;16.42;9.68;;;11.10;87.70;;;;;;5010581;28;20041;-74
2021/10/19 01:40:28;;;;;;;17.52;9.52;;;11.10;87.90;;;;;;5009285;28;20822;-73
2021/10/19 01:42:54;;;;;;;16.80;10.43;;;11.10;87.20;;;;;;5008964;28;20026;-73
2021/10/19 01:45:19;;;;;;;15.57;9.15;;;11.20;87.20;;;;;;5009964;28;20501;-74
2021/10/19 01:47:45;;;;;;;18.33;10.50;;;11.20;87.10;;;;;;5009346;28;20029;-73
2021/10/19 01:50:13;;;;;;;15.38;10.23;;;11.10;87.10;;;;;;5006705;28;20042;-73
2021/10/19 01:52:40;;;;;;;16.92;10.95;;;11.20;87.30;;;;;;5007247;28;20033;-73
2021/10/19 01:55:07;;;;;;;17.00;10.38;;;11.20;87.20;;;;;;5008272;28;20088;-73
2021/10/19 01:57:33;;;;;;;20.95;12.38;;;11.20;87.40;;;;;;5008187;28;20825;-73
2021/10/19 01:59:59;;;;;;;16.30;10.52;;;11.30;87.50;;;;;;5006474;28;20821;-73
2021/10/19 02:02:25;;;;;;;16.50;10.60;;;11.30;87.60;;;;;;5009861;28;20021;-73
2021/10/19 02:04:53;;;;;;;18.73;10.90;;;11.40;87.20;;;;;;5010406;28;20033;-73
2021/10/19 02:07:19;;;;;;;16.20;9.82;;;11.40;87.10;;;;;;5003541;28;20696;-73
2021/10/19 02:09:44;;;;;;;17.27;10.43;;;11.40;86.80;;;;;;5011690;28;20033;-73
2021/10/19 02:12:10;;;;;;;15.32;10.50;;;11.50;86.80;;;;;;5005062;28;20040;-73
2021/10/19 02:14:36;;;;;;;15.98;10.45;;;11.50;86.30;;;;;;5008427;28;20041;-74
2021/10/19 02:17:02;;;;;;;17.35;10.15;;;11.50;86.40;;;;;;5008736;28;20033;-74
2021/10/19 02:19:29;;;;;;;17.38;10.75;;;11.40;86.40;;;;;;5010850;28;20036;-74
2021/10/19 02:21:56;;;;;;;16.23;10.75;;;11.50;86.60;;;;;;5010322;28;20612;-74
2021/10/19 02:24:23;;;;;;;15.20;9.77;;;11.40;86.80;;;;;;5007389;28;20045;-73
2021/10/19 02:26:49;;;;;;;17.42;10.52;;;11.40;87.10;;;;;;5010236;28;20021;-72
2021/10/19 02:29:16;;;;;;;18.48;10.88;;;11.40;87.20;;;;;;5009576;28;20436;-74
2021/10/19 02:31:43;;;;;;;17.80;10.35;;;11.40;86.90;;;;;;5012871;28;20048;-72
2021/10/19 02:34:09;;;;;;;19.42;10.95;;;11.40;87.10;;;;;;5020219;28;20033;-72
2021/10/19 02:36:36;;;;;;;17.92;10.13;;;11.40;87.10;;;;;;5011959;28;20164;-73
2021/10/19 02:39:04;;;;;;;20.17;10.90;;;11.40;87.20;;;;;;5008818;28;20029;-73
2021/10/19 02:41:30;;;;;;;20.48;12.60;;;11.40;87.30;;;;;;5009194;28;20032;-74
2021/10/19 02:43:55;;;;;;;18.67;11.30;;;11.50;87.10;;;;;;5007211;28;20510;-73
2021/10/19 02:46:24;;;;;;;20.30;12.68;;;11.40;87.20;;;;;;5007165;28;20051;-74
2021/10/19 02:48:50;;;;;;;21.08;11.85;;;11.40;87.40;;;;;;5010382;28;20041;-74
2021/10/19 02:51:16;;;;;;;19.15;11.75;;;11.40;87.20;;;;;;5010880;28;20041;-74
2021/10/19 02:53:41;;;;;;;19.15;10.63;;;11.40;86.90;;;;;;5008004;28;20041;-74
2021/10/19 02:56:07;;;;;;;17.40;11.02;;;11.40;87.10;;;;;;5006209;28;20073;-74
2021/10/19 02:58:32;;;;;;;16.40;10.20;;;11.40;86.80;;;;;;5007457;28;20497;-74
2021/10/19 03:00:58;;;;;;;18.52;11.15;;;11.40;87.10;;;;;;5004888;28;20628;-74
2021/10/19 03:03:24;;;;;;;18.30;11.55;;;11.40;86.80;;;;;;5006256;28;20577;-74
2021/10/19 03:05:49;;;;;;;16.00;9.85;;;11.40;86.80;;;;;;5015227;28;20768;-74
2021/10/19 03:08:15;;;;;;;19.55;10.70;;;11.40;87.00;;;;;;5006593;28;20814;-74
2021/10/19 03:10:41;;;;;;;15.70;10.10;;;11.40;87.10;;;;;;5014801;28;20490;-74
2021/10/19 03:13:06;;;;;;;17.38;10.57;;;11.30;87.40;;;;;;5013609;28;20811;-74
2021/10/19 03:15:32;;;;;;;17.10;10.35;;;11.30;87.50;;;;;;5014206;28;20037;-74
2021/10/19 03:17:57;;;;;;;14.45;9.80;;;11.30;87.50;;;;;;5011366;28;20700;-74
2021/10/19 03:20:23;;;;;;;18.00;10.60;;;11.30;87.20;;;;;;5014012;28;20037;-74
2021/10/19 03:22:49;;;;;;;24.60;12.27;;;11.40;87.50;;;;;;5012591;28;20038;-74
2021/10/19 03:25:14;;;;;;;18.65;10.93;;;11.30;87.70;;;;;;5011749;28;20490;-74
2021/10/19 03:27:40;;;;;;;18.08;10.55;;;11.30;87.70;;;;;;5012289;28;20034;-74
2021/10/19 03:30:06;;;;;;;17.88;11.60;;;11.30;87.70;;;;;;5010140;28;20132;-73
2021/10/19 03:32:32;;;;;;;21.50;11.77;;;11.30;87.90;;;;;;5011765;28;20033;-74
2021/10/19 03:34:58;;;;;;;17.70;11.15;;;11.30;88.10;;;;;;5011111;28;20469;-74
2021/10/19 03:37:24;;;;;;;19.27;12.73;;;11.30;88.10;;;;;;5004902;28;20088;-74
2021/10/19 03:39:50;;;;;;;18.52;11.68;;;11.30;88.00;;;;;;5010575;28;20037;-74
2021/10/19 03:42:16;;;;;;;18.60;12.45;;;11.30;88.10;;;;;;5012957;28;20045;-74
2021/10/19 03:44:41;;;;;;;17.63;11.52;;;11.30;87.90;;;;;;5009950;28;20025;-74
2021/10/19 03:47:07;;;;;;;19.50;12.50;;;11.30;88.20;;;;;;5009847;28;20565;-74
2021/10/19 03:49:33;;;;;;;15.70;11.25;;;11.30;88.30;;;;;;5009918;28;20026;-72
2021/10/19 03:51:58;;;;;;;18.42;11.07;;;11.30;88.40;;;;;;5006843;28;20064;-74
2021/10/19 03:54:24;;;;;;;16.90;10.27;;;11.20;88.20;;;;;;5009931;28;20030;-74
2021/10/19 03:56:50;;;;;;;17.35;11.70;;;11.30;88.20;;;;;;5015262;28;20032;-73
2021/10/19 03:59:15;;;;;;;20.23;12.10;;;11.20;88.10;;;;;;5008630;28;20069;-74
2021/10/19 04:01:41;;;;;;;19.90;12.07;;;11.20;88.40;;;;;;5012602;28;20452;-74
2021/10/19 04:04:06;;;;;;;15.73;10.10;;;11.20;88.30;;;;;;5013319;28;20034;-74
2021/10/19 04:06:32;;;;;;;18.35;10.95;;;11.20;88.40;;;;;;5011842;28;20867;-73
2021/10/19 04:08:58;;;;;;;17.92;11.77;;;11.20;88.80;;;;;;5009495;28;20036;-74
2021/10/19 04:11:23;;;;;;;22.88;13.38;;;11.20;88.90;;;;;;5009046;28;20679;-74
2021/10/19 04:13:49;;;;;;;20.83;12.32;;;11.20;89.30;;;;;;5012531;28;20037;-74
2021/10/19 04:16:15;;;;;;;22.67;13.10;;;11.20;89.00;;;;;;5009556;28;20066;-74
2021/10/19 04:18:41;;;;;;;21.13;12.13;;;11.20;88.70;;;;;;5009370;28;20075;-74
2021/10/19 04:21:06;;;;;;;19.40;10.90;;;11.20;88.70;;;;;;5009544;28;20108;-74
2021/10/19 04:23:32;;;;;;;20.67;11.68;;;11.30;89.00;;;;;;5012566;28;20852;-74
2021/10/19 04:25:58;;;;;;;22.13;13.32;;;11.20;88.90;;;;;;5009272;28;20048;-74
2021/10/19 04:28:23;;;;;;;18.60;11.45;;;11.20;88.70;;;;;;5010629;28;20030;-74
2021/10/19 04:30:51;;;;;;;20.48;10.75;;;11.20;88.20;;;;;;5010828;28;20490;-74
2021/10/19 04:33:17;;;;;;;18.95;10.90;;;11.30;88.00;;;;;;5010357;28;20044;-73
2021/10/19 04:35:43;;;;;;;22.70;11.50;;;11.20;88.10;;;;;;5011694;28;20044;-74
2021/10/19 04:38:09;;;;;;;21.63;12.68;;;11.30;88.30;;;;;;5014016;28;20558;-74
2021/10/19 04:40:35;;;;;;;19.17;12.13;;;11.20;88.00;;;;;;5021015;28;20125;-74
2021/10/19 04:43:01;;;;;;;17.40;10.98;;;11.20;87.70;;;;;;5009235;28;20045;-74
2021/10/19 04:45:28;;;;;;;17.63;10.80;;;11.20;87.50;;;;;;5019444;28;20116;-74
2021/10/19 04:47:56;;;;;;;15.18;9.75;;;11.10;87.80;;;;;;5016079;28;20037;-74
2021/10/19 04:50:23;;;;;;;16.73;9.90;;;11.10;88.20;;;;;;5013815;28;20045;-74
2021/10/19 04:52:48;;;;;;;19.08;11.13;;;11.00;88.70;;;;;;5017899;28;20037;-74
2021/10/19 04:55:14;;;;;;;20.17;10.88;;;10.90;89.20;;;;;;5017862;28;20069;-74
2021/10/19 04:57:40;;;;;;;17.38;10.68;;;10.90;89.60;;;;;;5020051;28;20052;-74
2021/10/19 05:00:07;;;;;;;21.80;12.25;;;10.90;89.40;;;;;;5013535;28;20046;-74
2021/10/19 05:02:32;;;;;;;23.10;12.73;;;10.90;89.60;;;;;;5015919;28;20036;-74
2021/10/19 05:04:58;;;;;;;20.23;12.20;;;10.90;89.60;;;;;;5021658;28;20039;-74
2021/10/19 05:07:24;;;;;;;19.20;11.50;;;10.90;89.50;;;;;;5010933;28;20461;-74
2021/10/19 05:09:49;;;;;;;22.38;12.93;;;11.00;89.50;;;;;;5010976;28;20032;-74
2021/10/19 05:12:15;;;;;;;21.27;12.25;;;11.00;89.30;;;;;;5017870;28;20044;-74
2021/10/19 05:14:41;;;;;;;19.00;11.32;;;11.00;89.30;;;;;;5014052;28;20087;-74
2021/10/19 05:17:07;;;;;;;23.85;13.43;;;11.10;89.10;;;;;;5005145;28;20042;-74
2021/10/19 05:19:32;;;;;;;20.42;13.10;;;11.10;89.00;;;;;;5008381;28;20103;-74
2021/10/19 05:21:58;;;;;;;19.75;12.32;;;11.20;88.80;;;;;;5027125;28;20076;-74
2021/10/19 05:24:24;;;;;;;23.98;12.85;;;11.20;88.90;;;;;;5021515;28;20257;-74
2021/10/19 05:26:49;;;;;;;25.00;14.35;;;11.20;88.20;;;;;;5023285;28;20037;-74
2021/10/19 05:29:19;;;;;;;21.75;13.10;;;11.20;87.40;;;;;;5006989;28;20025;-74
2021/10/19 05:31:44;;;;;;;24.88;14.73;;;11.30;87.20;;;;;;5015804;28;20037;-74
2021/10/19 05:34:10;;;;;;;20.42;13.05;;;11.30;87.50;;;;;;5015567;28;20421;-74
2021/10/19 05:36:36;;;;;;;23.13;13.25;;;11.30;87.10;;;;;;5014647;28;20041;-74
2021/10/19 05:39:02;;;;;;;24.17;13.93;;;11.40;87.40;;;;;;5010263;28;20021;-74
2021/10/19 05:41:27;;;;;;;23.73;12.63;;;11.40;87.10;;;;;;5008188;28;20676;-74
2021/10/19 05:43:53;;;;;;;20.48;12.60;;;11.50;87.20;;;;;;5007530;28;20084;-74
2021/10/19 05:46:18;;;;;;;23.77;12.77;;;11.50;87.20;;;;;;5001777;28;20053;-74
2021/10/19 05:48:44;;;;;;;19.33;11.98;;;11.50;87.20;;;;;;5009982;28;20048;-73
2021/10/19 05:51:10;;;;;;;23.25;13.20;;;11.60;87.20;;;;;;5010713;28;20048;-73
2021/10/19 05:53:35;;;;;;;23.58;13.63;;;11.60;87.30;;;;;;5009515;28;20040;-73
2021/10/19 05:56:01;;;;;;;26.52;14.50;;;11.60;86.10;;;;;;5014830;28;20057;-74
2021/10/19 05:58:27;;;;;;;22.38;13.52;;;11.70;86.60;;;;;;5012264;28;20666;-72
2021/10/19 06:00:52;;;;;;;22.23;12.48;;;11.70;86.60;;;;;;5014656;28;20060;-72
2021/10/19 06:03:19;;;;;;;25.70;14.75;;;11.70;86.20;;;;;;5017676;28;20132;-72
2021/10/19 06:05:46;;;;;;;21.15;12.75;;;11.70;85.40;;;;;;5009417;28;20091;-73
2021/10/19 06:08:11;;;;;;;22.58;13.05;;;11.80;85.80;;;;;;5018629;28;20034;-74
2021/10/19 06:10:37;;;;;;;23.48;13.43;;;11.80;85.80;;;;;;5009943;28;20474;-73
2021/10/19 06:13:03;;;;;;;23.50;12.43;;;11.80;85.80;;;;;;5011451;28;20482;-73
2021/10/19 06:15:28;;;;;;;21.95;13.40;;;11.80;85.40;;;;;;5018052;28;20553;-72
2021/10/19 06:17:54;;;;;;;20.23;11.77;;;11.90;85.10;;;;;;5005270;28;20417;-73
2021/10/19 06:20:20;;;;;;;22.35;13.23;;;11.90;85.10;;;;;;5004222;28;20037;-73
2021/10/19 06:22:46;;;;;;;21.98;13.68;;;11.90;85.40;;;;;;5003824;28;20553;-72
2021/10/19 06:25:12;;;;;;;22.50;11.73;;;12.00;84.50;;;;;;5011333;28;20037;-72
2021/10/19 06:27:38;;;;;;;19.27;11.98;;;12.00;84.40;;;;;;5014446;28;20025;-73
2021/10/19 06:30:04;;;;;;;21.00;11.38;;;12.10;84.70;;;;;;5007042;28;20141;-73
2021/10/19 06:32:30;;;;;;;19.90;12.13;;;12.10;84.90;;;;;;5012251;28;20033;-72
2021/10/19 06:34:56;;;;;;;21.52;12.52;;;12.20;84.00;;;;;;5016913;28;20059;-73
2021/10/19 06:37:22;;;;;;;20.38;12.52;;;12.30;83.60;;;;;;5011356;28;20030;-72
2021/10/19 06:39:47;;;;;;;21.35;12.60;;;12.40;84.30;;;;;;5007189;28;20715;-73
2021/10/19 06:42:13;;;;;;;22.67;13.45;;;12.40;83.50;;;;;;5012228;28;20038;-71
2021/10/19 06:44:39;;;;;;;22.05;13.45;;;12.50;83.10;;;;;;5029916;28;20087;-73
2021/10/19 06:47:04;;;;;;;19.63;11.57;;;12.50;82.10;;;;;;5027816;28;20034;-73
2021/10/19 06:49:30;;;;;;;19.15;11.65;;;12.50;82.60;;;;;;5032190;28;20120;-72
2021/10/19 06:51:56;;;;;;;20.08;12.32;;;12.50;83.00;;;;;;5016229;28;20073;-73
2021/10/19 06:54:22;;;;;;;22.55;12.43;;;12.60;83.00;;;;;;5010232;28;20045;-73
2021/10/19 06:56:47;;;;;;;21.50;12.65;;;12.70;83.00;;;;;;5008712;28;20034;-73
2021/10/19 06:59:13;;;;;;;19.05;12.00;;;12.70;82.90;;;;;;5010502;28;20021;-73
2021/10/19 07:01:39;;;;;;;19.25;11.48;;;12.70;82.00;;;;;;5022411;28;20527;-73
2021/10/19 07:04:04;;;;;;;18.55;11.82;;;12.80;82.10;;;;;;5014027;28;20083;-72
2021/10/19 07:06:30;;;;;;;20.67;12.20;;;12.80;81.80;;;;;;5012795;28;20021;-73
2021/10/19 07:08:56;;;;;;;19.75;12.25;;;12.90;81.40;;;;;;5017481;28;20032;-73
2021/10/19 07:11:26;;;;;;;23.67;12.98;;;12.90;81.60;;;;;;5015646;28;20053;-73
2021/10/19 07:13:55;;;;;;;21.42;12.07;;;12.90;81.40;;;;;;5014836;28;20045;-76
2021/10/19 07:16:21;;;;;;;20.08;12.32;;;13.00;81.80;;;;;;5023401;28;20033;-75
2021/10/19 07:18:47;;;;;;;23.70;13.00;;;13.00;81.60;;;;;;5019922;28;20091;-72
2021/10/19 07:21:13;;;;;;;20.98;12.20;;;13.00;81.20;;;;;;5015117;28;20111;-69
2021/10/19 07:23:39;;;;;;;20.85;12.65;;;13.00;81.20;;;;;;5008445;28;20037;-69
2021/10/19 07:26:05;;;;;;;20.98;12.35;;;13.00;81.10;;;;;;5022497;28;20039;-79
2021/10/19 07:28:31;;;;;;;23.60;12.38;;;13.10;81.00;;;;;;5012799;28;20797;-72
2021/10/19 07:30:56;;;;;;;19.77;12.02;;;13.20;80.80;;;;;;5018477;28;20033;-70
2021/10/19 07:33:22;;;;;;;21.25;12.93;;;13.20;80.70;;;;;;5012255;28;20033;-70
2021/10/19 07:35:48;;;;;;;21.38;11.43;;;13.30;81.10;;;;;;5016501;28;20029;-74
2021/10/19 07:38:14;;;;;;;22.08;12.63;;;13.30;80.70;;;;;;5007922;28;20797;-79
2021/10/19 07:40:40;;;;;;;19.63;12.20;;;13.30;80.20;;;;;;5011311;28;20033;-73
2021/10/19 07:43:06;;;;;;;18.30;11.77;;;13.40;81.00;;;;;;5012373;28;20141;-75
2021/10/19 07:45:34;;;;;;;20.73;11.43;;;13.40;80.60;;;;;;5014553;28;20577;-70
2021/10/19 07:48:01;;;;;;;15.85;10.55;;;13.40;79.40;;;;;;5021904;28;20244;-70
2021/10/19 07:50:29;;;;;;;18.70;11.13;;;13.40;80.30;;;;;;5015163;28;20032;-70
2021/10/19 07:52:59;;;;;;;20.90;12.02;;;13.30;79.90;;;;;;5016968;28;20034;-70
2021/10/19 07:55:27;;;;;;;18.05;11.70;;;13.30;80.20;;;;;;5021557;28;20552;-70
2021/10/19 07:57:54;;;;;;;20.48;12.50;;;13.30;80.60;;;;;;5025763;28;20075;-77
2021/10/19 08:00:28;;;;;;;22.50;12.25;;;13.40;80.10;;;;;;5024183;28;20037;-77
2021/10/19 08:02:55;;;;;;;21.70;12.43;;;13.30;80.50;;;;;;5010851;28;20040;-76
2021/10/19 08:05:21;;;;;;;23.00;12.50;;;13.40;80.70;;;;;;5015517;28;20051;-77
2021/10/19 08:07:49;;;;;;;19.70;10.77;;;13.50;80.70;;;;;;5017950;28;20487;-67
2021/10/19 08:10:21;;;;;;;20.67;11.88;;;13.50;80.80;;;;;;5010729;28;20449;-76
2021/10/19 08:12:47;;;;;;;18.90;11.15;;;13.60;79.70;;;;;;5006500;28;20033;-76
2021/10/19 08:15:14;;;;;;;18.65;11.20;;;13.60;79.60;;;;;;5003467;28;20034;-76
2021/10/19 08:17:40;;;;;;;20.98;12.15;;;13.70;79.30;;;;;;5014140;28;20041;-75
2021/10/19 08:20:07;;;;;;;19.27;12.07;;;13.80;79.80;;;;;;5009526;28;20795;-73
2021/10/19 08:22:34;;;;;;;19.30;12.23;;;13.80;79.70;;;;;;5013989;28;20128;-69
2021/10/19 08:25:05;;;;;;;23.17;12.55;;;13.80;79.70;;;;;;5016590;28;20172;-78
2021/10/19 08:27:32;;;;;;;19.13;11.70;;;13.80;79.40;;;;;;5005545;28;20049;-74
2021/10/19 08:29:57;;;;;;;24.40;12.32;;;13.90;79.20;;;;;;5019571;28;20044;-75
2021/10/19 08:32:23;;;;;;;19.17;11.23;;;13.90;78.70;;;;;;5006199;28;20025;-75
2021/10/19 08:34:49;;;;;;;18.48;11.52;;;14.00;79.30;;;;;;5015024;28;20140;-74
2021/10/19 08:37:14;;;;;;;21.25;10.65;;;14.10;79.10;;;;;;5008138;28;20037;-74
2021/10/19 08:39:40;;;;;;;18.77;10.98;;;14.10;79.40;;;;;;5012323;28;20069;-74
2021/10/19 08:42:07;;;;;;;21.00;11.43;;;14.30;79.40;;;;;;5015713;28;20226;-77
2021/10/19 08:44:33;;;;;;;22.50;11.73;;;14.50;78.10;;;;;;5009916;28;20037;-76
2021/10/19 08:47:01;;;;;;;17.33;10.88;;;14.70;77.30;;;;;;5013950;28;20029;-76
2021/10/19 08:49:26;;;;;;;18.50;10.35;;;15.10;77.00;;;;;;5011803;28;20494;-78
2021/10/19 08:51:52;;;;;;;15.95;10.63;;;15.70;75.30;;;;;;5005752;28;20029;-78
2021/10/19 08:54:18;;;;;;;16.63;10.23;;;16.10;72.00;;;;;;5013033;28;20086;-66
2021/10/19 08:56:44;;;;;;;18.13;10.48;;;16.30;70.50;;;;;;5020588;28;20513;-68
2021/10/19 08:59:12;;;;;;;16.98;10.63;;;16.30;70.60;;;;;;5013766;28;20065;-77
2021/10/19 09:01:40;;;;;;;15.52;9.63;;;16.30;71.50;;;;;;5012805;28;20486;-77
2021/10/19 09:04:11;;;;;;;19.40;10.27;;;16.20;70.10;;;;;;5014305;28;20052;-77
2021/10/19 09:06:39;;;;;;;17.35;10.43;;;16.20;70.50;;;;;;5011373;28;20452;-77
2021/10/19 09:09:05;;;;;;;12.98;9.10;;;16.20;71.10;;;;;;5022153;28;20409;-77
2021/10/19 09:11:38;;;;;;;14.82;9.90;;;16.20;71.50;;;;;;5021756;28;20061;-77
2021/10/19 09:14:04;;;;;;;17.33;9.68;;;16.40;71.00;;;;;;5007939;28;20040;-77
2021/10/19 09:16:48;;;;;;;14.85;9.48;;;16.50;70.60;;;;;;5008202;28;20034;-76
2021/10/19 09:19:19;;;;;;;18.02;10.13;;;16.60;71.10;;;;;;5002012;28;20091;-78
2021/10/19 09:21:50;;;;;;;13.25;9.20;;;16.80;69.10;;;;;;5010315;28;20037;-77
2021/10/19 09:24:25;;;;;;;18.52;9.73;;;17.10;69.00;;;;;;5013323;28;20041;-77
2021/10/19 09:27:02;;;;;;;16.30;8.65;;;17.50;67.20;;;;;;5018647;28;20116;-77
2021/10/19 09:29:31;;;;;;;12.70;8.43;;;17.80;66.50;;;;;;5016531;28;20782;-76
2021/10/19 09:32:00;;;;;;;12.60;8.77;;;18.00;66.50;;;;;;5016437;28;20044;-76
2021/10/19 09:34:33;;;;;;;14.57;8.80;;;18.00;63.90;;;;;;5016896;28;20389;-76
2021/10/19 09:37:00;;;;;;;13.23;7.95;;;17.80;65.60;;;;;;5004594;28;20387;-76
2021/10/19 09:39:38;;;;;;;10.95;7.90;;;17.50;66.80;;;;;;5017569;28;20076;-76
2021/10/19 09:42:25;;;;;;;14.55;8.82;;;17.50;68.20;;;;;;5009233;28;20044;-77
2021/10/19 09:45:00;;;;;;;13.05;8.00;;;17.60;67.80;;;;;;5006161;28;20104;-76
2021/10/19 09:47:36;;;;;;;11.50;7.30;;;17.40;67.90;;;;;;5012776;28;20049;-77
2021/10/19 09:50:02;;;;;;;10.55;7.38;;;17.20;68.30;;;;;;5007005;28;20055;-76
2021/10/19 09:52:29;;;;;;;12.40;7.43;;;17.20;68.60;;;;;;5011504;28;20517;-76
2021/10/19 09:54:55;;;;;;;12.07;6.85;;;17.10;68.30;;;;;;5007916;28;20040;-76
2021/10/19 09:57:21;;;;;;;12.70;7.55;;;17.00;70.00;;;;;;5005227;28;20041;-77
2021/10/19 09:59:47;;;;;;;10.52;7.07;;;17.00;69.40;;;;;;5018048;28;20025;-75
2021/10/19 10:02:16;;;;;;;10.35;7.20;;;17.10;69.80;;;;;;5013060;28;20373;-76
2021/10/19 10:04:42;;;;;;;9.38;6.82;;;17.10;68.90;;;;;;5010389;28;20389;-75
2021/10/19 10:07:11;;;;;;;13.05;7.65;;;17.10;69.70;;;;;;5002231;28;20105;-75
2021/10/19 10:09:38;;;;;;;8.70;6.38;;;17.10;69.50;;;;;;5018705;28;20048;-75
2021/10/19 10:12:08;;;;;;;9.80;6.88;;;17.20;69.00;;;;;;5009871;28;20741;-73
2021/10/19 10:14:45;;;;;;;10.98;6.40;;;17.20;69.20;;;;;;5008981;28;20595;-74
2021/10/19 10:17:11;;;;;;;9.32;6.70;;;17.20;68.50;;;;;;5011965;28;20076;-74
2021/10/19 10:19:37;;;;;;;10.90;7.03;;;17.30;68.10;;;;;;5006944;28;20038;-72
2021/10/19 10:22:18;;;;;;;10.85;7.00;;;17.30;68.60;;;;;;5006402;28;20541;-74
2021/10/19 10:24:44;;;;;;;7.70;6.10;;;17.30;67.50;;;;;;5010437;28;20067;-76
2021/10/19 10:27:12;;;;;;;10.15;6.78;;;17.30;68.10;;;;;;5006388;28;20038;-75
2021/10/19 10:29:48;;;;;;;9.90;6.70;;;17.20;68.10;;;;;;5010134;28;20033;-75
2021/10/19 10:32:21;;;;;;;;;;;17.10;67.90;;;;;;5015673;28;20470;-75
2021/10/19 10:34:58;;;;;;;11.45;6.57;;;17.00;69.00;;;;;;5012068;28;19919;-75
2021/10/19 10:37:41;;;;;;;10.32;6.15;;;17.00;69.20;;;;;;5022006;28;20555;-75
2021/10/19 10:40:09;;;;;;;9.40;5.75;;;17.10;68.90;;;;;;5007502;28;20115;-75
2021/10/19 10:42:37;;;;;;;8.07;5.78;;;17.20;68.60;;;;;;5011658;28;20037;-76
2021/10/19 10:45:14;;;;;;;9.40;5.50;;;17.20;67.90;;;;;;5009603;28;20037;-75
2021/10/19 10:47:48;;;;;;;8.45;5.63;;;17.30;69.30;;;;;;5008075;28;20169;-75
2021/10/19 10:50:14;;;;;;;9.05;6.25;;;17.40;68.90;;;;;;5007916;28;20038;-76
2021/10/19 10:52:40;;;;;;;8.50;6.05;;;17.40;67.20;;;;;;5011859;28;20087;-76
2021/10/19 10:55:13;;;;;;;8.63;5.65;;;17.40;67.20;;;;;;5011639;28;20068;-76
2021/10/19 10:57:45;;;;;;;8.88;5.63;;;17.40;67.70;;;;;;5015268;28;20121;-76
2021/10/19 11:00:12;;;;;;;8.80;5.60;;;17.40;69.70;;;;;;5019469;28;20042;-76
2021/10/19 11:02:38;;;;;;;7.85;5.95;;;17.40;68.30;;;;;;5012489;28;20100;-76
2021/10/19 11:05:04;;;;;;;7.68;5.40;;;17.40;68.30;;;;;;5008912;28;20033;-76
2021/10/19 11:07:35;;;;;;;8.98;6.18;;;17.50;67.60;;;;;;5018018;28;20738;-76
2021/10/19 11:10:27;;;;;;;10.95;6.07;;;17.50;67.80;;;;;;5016450;28;20125;-76
2021/10/19 11:13:02;;;;;;;11.43;7.00;;;17.50;66.70;;;;;;5006449;28;20053;-76
2021/10/19 11:15:29;;;;;;;8.53;5.23;;;17.50;67.60;;;;;;5020649;28;20045;-76
2021/10/19 11:17:57;;;;;;;9.70;6.05;;;17.50;68.20;;;;;;5006282;28;20044;-76
2021/10/19 11:20:25;;;;;;;9.57;5.18;;;17.30;68.30;;;;;;5011436;28;20049;-76
2021/10/19 11:22:51;;;;;;;8.60;5.60;;;17.30;69.40;;;;;;5015408;28;20060;-77
2021/10/19 11:25:20;;;;;;;7.82;5.38;;;17.40;69.10;;;;;;5008320;28;20034;-76
2021/10/19 11:27:48;;;;;;;9.18;5.57;;;17.60;67.60;;;;;;5008891;28;20060;-76
2021/10/19 11:30:14;;;;;;;8.45;5.53;;;17.60;66.80;;;;;;5013212;28;20766;-76
2021/10/19 11:32:40;;;;;;;9.90;5.07;;;17.70;68.10;;;;;;5019215;28;20037;-77
2021/10/19 11:35:06;;;;;;;6.97;5.32;;;17.80;67.00;;;;;;5006279;28;20038;-76
2021/10/19 11:37:32;;;;;;;9.23;4.80;;;17.90;67.20;;;;;;5011315;28;20038;-77
2021/10/19 11:40:08;;;;;;;7.93;4.72;;;18.00;67.40;;;;;;5020536;28;20040;-77
2021/10/19 11:42:47;;;;;;;5.15;4.47;;;18.10;66.20;;;;;;5010036;28;20070;-76
2021/10/19 11:45:17;;;;;;;6.70;4.75;;;18.10;66.80;;;;;;5010132;28;20036;-76
2021/10/19 11:48:03;;;;;;;6.03;4.47;;;18.20;66.80;;;;;;5008605;28;20545;-77
2021/10/19 11:50:35;;;;;;;7.57;5.15;;;18.30;66.90;;;;;;5007708;28;20045;-76
2021/10/19 11:53:02;;;;;;;9.20;5.18;;;18.40;66.80;;;;;;5015301;28;20124;-77
2021/10/19 11:55:33;;;;;;;7.50;4.43;;;18.30;66.60;;;;;;5012981;28;20111;-76
2021/10/19 11:58:03;;;;;;;6.65;4.60;;;18.40;66.60;;;;;;5008332;28;20119;-77
2021/10/19 12:00:33;;;;;;;6.95;5.00;;;18.30;67.40;;;;;;5032088;28;20044;-73
2021/10/19 12:03:02;;;;;;;6.57;4.70;;;18.40;66.90;;;;;;5006495;28;20030;-76
2021/10/19 12:05:31;;;;;;;5.78;4.40;;;18.40;67.20;;;;;;5009485;28;20052;-70
2021/10/19 12:07:59;;;;;;;6.53;4.22;;;18.40;67.20;;;;;;5028274;28;20034;-70
2021/10/19 12:10:27;;;;;;;6.75;4.57;;;18.40;66.90;;;;;;5012574;28;20037;-69
2021/10/19 12:13:03;;;;;;;5.43;4.35;;;18.40;66.70;;;;;;5015160;28;20025;-71
2021/10/19 12:15:32;;;;;;;9.10;4.60;;;18.50;66.60;;;;;;5015694;28;20041;-70
2021/10/19 12:18:01;;;;;;;8.63;4.72;;;18.40;67.20;;;;;;5019659;28;20034;-70
2021/10/19 12:20:32;;;;;;;6.57;4.60;;;18.40;67.50;;;;;;5007672;28;20446;-71
2021/10/19 12:23:09;;;;;;;9.30;4.63;;;18.40;67.40;;;;;;5014449;28;20091;-70
2021/10/19 12:25:40;;;;;;;7.43;4.38;;;18.50;67.20;;;;;;5011529;28;20029;-70
2021/10/19 12:28:07;;;;;;;5.65;4.60;;;18.50;67.50;;;;;;5007866;28;20041;-70
2021/10/19 12:30:41;;;;;;;6.05;4.40;;;18.50;67.60;;;;;;5011901;28;20045;-70
2021/10/19 12:33:27;;;;;;;7.68;4.40;;;18.50;67.90;;;;;;5024739;28;20096;-70